ADDS METAR Data INFO
IDs: Format: Raw Decoded Include TAF

Data at: 2217 UTC 24 Jun 2018

KBPK 242053Z AUTO 00000KT 10SM FEW018 BKN028 OVC046 24/21 A2995 RMK AO2 SLP131 60000 T02440211 51007
KBPK 241953Z AUTO 00000KT 10SM FEW014 24/21 A2994 RMK AO2 RAB1858E18 SLP129 P0000 T02390211
KBPK 241853Z AUTO 19005KT 10SM SCT010 23/21 A2993 RMK AO2 RAB1754E37 SLP126 P0000 T02280211
KBPK 241842Z AUTO 23004KT 10SM SCT009 23/21 A2993 RMK AO2 RAB1754E37 P0000 T02280211
KBPK 241829Z AUTO 21004KT 10SM -RA SCT009 BKN015 22/21 A2992 RMK AO2 RAB1754 P0000 T02220211
KBPK 241819Z AUTO 19005KT 10SM -RA SCT009 22/21 A2992 RMK AO2 RAB1754 P0000 T02220211
KBPK 241803Z AUTO 20005KT 10SM -RA BKN009 BKN110 22/21 A2993 RMK AO2 RAB1754 CIG 006V013 P0000 T02220211
KBPK 241753Z AUTO 00000KT 10SM SCT008 SCT038 BKN075 22/22 A2992 RMK AO2 RAB03E42 SLP123 P0000 60028 T02220217 10222 20206 55006
KBPK 241653Z AUTO 15004KT 10SM FEW004 BKN090 OVC110 21/21 A2991 RMK AO2 RAE50 PRESRR SLP119 P0002 T02110211
KBPK 241553Z AUTO 13006KT 10SM -RA FEW007 SCT020 BKN120 21/21 A2992 RMK AO2 LTG DSNT NE AND E TSE15 SLP123 P0012 T02060206
KBPK 241546Z AUTO 15007KT 10SM -RA FEW006 BKN020 BKN110 21/21 A2993 RMK AO2 LTG DSNT NE AND E TSE15 CIG 015V029 P0011 T02060206
KBPK 241536Z AUTO 18010KT 10SM VCTS -RA FEW006 BKN017 OVC120 21/21 A2995 RMK AO2 LTG DSNT ALQDS TSE15 PRESRR P0011 T02110206
KBPK 241528Z AUTO 17010KT 6SM VCTS -RA BR SCT004 BKN095 OVC120 21/21 A2993 RMK AO2 LTG DSNT ALQDS TSE15 P0010 T02110211
KBPK 241521Z AUTO 18009KT 6SM VCTS RA BR FEW011 BKN090 OVC110 22/22 A2992 RMK AO2 LTG DSNT ALQDS TSE15 P0008 T02170217
KBPK 241500Z AUTO 11011KT 4SM TSRA BR SCT013 BKN055 OVC085 22/22 A2991 RMK AO2 LTG DSNT ALQDS PRESFR P0003 T02170217
KBPK 241453Z AUTO 15007KT 4SM +TSRA BR FEW007 BKN015 OVC070 22/21 A2994 RMK AO2 LTG DSNT ALQDS TSE06B37 SLP130 P0012 60014 T02170211 53018
KBPK 241447Z AUTO 20007KT 4SM TSRA BR FEW007 BKN012 OVC055 22/21 A2995 RMK AO2 LTG DSNT ALQDS TSE06B37 P0010
KBPK 241439Z AUTO VRB04KT 3SM +TSRA BR SCT012 BKN017 OVC070 22/21 A2995 RMK AO2 LTG DSNT ALQDS TSE06B37 P0007 T02170211
KBPK 241429Z AUTO 34003KT 6SM VCTS RA BR BKN012 BKN023 22/21 A2994 RMK AO2 LTG DSNT ALQDS TSE06 P0002 T02170211
KBPK 241424Z AUTO 00000KT 10SM -RA BKN014 BKN023 BKN027 22/21 A2995 RMK AO2 LTG DSNT ALQDS TSE06 P0000 T02170211
KBPK 241412Z AUTO VRB04KT 10SM VCTS -RA SCT023 BKN028 BKN039 22/21 A2991 RMK AO2 LTG DSNT ALQDS TSE06 PRESRR P0000 T02170211
KBPK 241353Z AUTO 12008KT 10SM -TSRA BKN027 BKN041 BKN049 22/21 A2985 RMK AO2 LTG DSNT ALQDS RAB25 TSB34 PRESFR SLP099 P0002 T02170206
KBPK 241349Z AUTO 13007KT 10SM -TSRA BKN027 BKN041 OVC049 22/21 A2986 RMK AO2 LTG DSNT ALQDS RAB25 TSB34 PRESFR P0002
KBPK 241340Z AUTO 16007KT 10SM -TSRA SCT027 SCT032 OVC045 22/21 A2989 RMK AO2 LTG DSNT ALQDS RAB25 TSB34 P0002 T02220211
KBPK 241327Z AUTO 16006KT 10SM VCTS -RA FEW029 BKN042 BKN050 22/22 A2990 RMK AO2 LTG DSNT ALQDS RAB25 P0001 T02220217
KBPK 241316Z AUTO 14006KT 10SM SCT041 BKN049 BKN060 22/22 A2990 RMK AO2 LTG DSNT NE AND E T02220217
KBPK 241253Z AUTO 11003KT 10SM VCTS SCT049 SCT065 BKN090 22/22 A2989 RMK AO2 LTG DSNT NE AND E RAB33E49 SLP111 P0000 T02170217
KBPK 241153Z AUTO 00000KT 10SM OVC100 21/21 A2987 RMK AO2 LTG DSNT W AND NW RAB05E45 SLP103 P0000 60000 70001 T02110206 10244 20211 51009
KBPK 241116Z AUTO 00000KT 10SM -RA FEW043 SCT090 BKN110 22/20 A2988 RMK AO2 LTG DSNT S AND W RAB05 P0000 T02220200
KBPK 241101Z AUTO 00000KT 10SM VCTS SCT041 BKN120 22/19 A2987 RMK AO2 LTG DSNT SE AND W T02220194
KBPK 241053Z AUTO 16003KT 10SM SCT039 BKN120 22/19 A2987 RMK AO2 LTG DSNT SE-W SLP103 T02220194
KBPK 240953Z AUTO 00000KT 10SM FEW035 SCT120 21/19 A2987 RMK AO2 SLP103 T02110194
KBPK 240853Z AUTO 00000KT 10SM CLR 21/19 A2984 RMK AO2 SLP093 T02110194 58005
KBPK 240653Z AUTO 00000KT 10SM CLR 23/19 A2987 RMK AO2 SLP102 T02280189
KBPK 240453Z AUTO 00000KT 10SM CLR 23/19 A2986 RMK AO2 SLP099 T02330194
KBPK 240353Z AUTO 00000KT 10SM CLR 24/19 A2986 RMK AO2 SLP098 T02440194
KBPK 240253Z AUTO 00000KT 10SM CLR 25/20 A2983 RMK AO2 SLP092 T02500200 53010
KBPK 240153Z AUTO 00000KT 10SM CLR 26/20 A2981 RMK AO2 SLP085 T02560200
KBPK 240053Z AUTO 00000KT 10SM CLR 27/20 A2981 RMK AO2 SLP083 T02720200
KBPK 232353Z AUTO 00000KT 10SM CLR 31/19 A2980 RMK AO2 SLP081 T03060194 10311 20283 51004
KBPK 232253Z AUTO VRB04KT 10SM CLR 31/18 A2980 RMK AO2 SLP079 T03060183
KBPK 232153Z AUTO VRB05KT 10SM CLR 31/18 A2980 RMK AO2 SLP081 T03060183
KBPK 232053Z AUTO VRB03KT 10SM CLR 31/18 A2979 RMK AO2 SLP077 T03060183 55006
KBPK 231953Z AUTO VRB04KT 10SM CLR 30/19 A2979 RMK AO2 SLP076 T03000189
KBPK 231853Z AUTO 27006KT 10SM FEW038 FEW047 29/21 A2980 RMK AO2 SLP080 T02940206
KBPK 231753Z AUTO VRB03KT 10SM CLR 28/21 A2981 RMK AO2 SLP084 60001 T02830206 10283 20183 58001
KBPK 231653Z AUTO 25007KT 210V300 10SM CLR 27/20 A2982 RMK AO2 SLP087 T02720200
KBPK 231553Z AUTO 19005KT 10SM CLR 26/20 A2981 RMK AO2 SLP084 T02610200
KBPK 231453Z AUTO 00000KT 10SM CLR 24/21 A2981 RMK AO2 SLP086 60001 T02440206 56004
KBPK 231253Z AUTO 08005KT 10SM CLR 20/19 A2980 RMK AO2 RAE16 SLP082 P0001 T02000194
KBPK 231153Z AUTO 36004KT 6SM -RA BR BKN110 18/18 A2983 RMK AO2 RAB12 PRESRR SLP090 P0004 60004 70004 T01830183 10200 20183 50012
KBPK 231053Z AUTO 26003KT 10SM FEW110 19/18 A2983 RMK AO2 SLP090 T01890178